createdAt,value
2018-03-29T00:00:07.178Z,98309.19
2018-03-29T00:02:34.781Z,98308.30
2018-03-29T00:05:02.497Z,98311.88
2018-03-29T00:07:30.140Z,98308.63
2018-03-29T00:09:57.699Z,98309.19
2018-03-29T00:12:27.910Z,98314.75
2018-03-29T00:14:55.807Z,98325.72
2018-03-29T00:17:23.371Z,98327.16
2018-03-29T00:19:51.352Z,98332.41
2018-03-29T00:22:19.160Z,98330.10
2018-03-29T00:24:47.363Z,98334.11
2018-03-29T00:27:15.391Z,98333.86
2018-03-29T00:29:43.870Z,98347.27
2018-03-29T00:32:11.506Z,98337.20
2018-03-29T00:34:39.240Z,98347.50
2018-03-29T00:37:08.028Z,98353.97
2018-03-29T00:39:35.727Z,98338.64
2018-03-29T00:42:03.951Z,98359.17
2018-03-29T00:44:31.598Z,98346.05
2018-03-29T00:46:59.290Z,98357.28
2018-03-29T00:49:26.820Z,98355.92
2018-03-29T00:51:54.393Z,98358.00
2018-03-29T00:54:21.922Z,98366.31
2018-03-29T00:56:50.120Z,98363.62
2018-03-29T00:59:17.641Z,98371.59
2018-03-29T01:01:45.192Z,98369.87
2018-03-29T01:04:12.819Z,98374.20
2018-03-29T01:06:40.481Z,98365.53
2018-03-29T01:09:08.004Z,98364.98
2018-03-29T01:11:35.554Z,98365.17
2018-03-29T01:14:03.076Z,98368.52
2018-03-29T01:16:30.711Z,98374.44
2018-03-29T01:18:58.230Z,98378.49
2018-03-29T01:21:25.767Z,98372.89
2018-03-29T01:23:53.348Z,98374.08
2018-03-29T01:26:21.624Z,98380.45
2018-03-29T01:28:49.180Z,98385.48
2018-03-29T01:31:16.719Z,98382.39
2018-03-29T01:33:44.284Z,98377.49
2018-03-29T01:36:11.805Z,98399.55
2018-03-29T01:38:39.378Z,98394.50
2018-03-29T01:41:06.899Z,98391.22
2018-03-29T01:43:34.459Z,98389.50
2018-03-29T01:46:01.996Z,98403.17
2018-03-29T01:48:29.566Z,98398.20
2018-03-29T01:50:57.108Z,98388.42
2018-03-29T01:53:24.912Z,98398.19
2018-03-29T01:55:52.427Z,98393.46
2018-03-29T01:58:19.956Z,98385.00
2018-03-29T02:00:47.509Z,98395.23
2018-03-29T02:03:15.062Z,98397.27
2018-03-29T02:05:42.629Z,98404.40
2018-03-29T02:08:10.155Z,98398.52
2018-03-29T02:10:37.736Z,98398.86
2018-03-29T02:13:05.263Z,98395.73
2018-03-29T02:15:32.844Z,98401.81
2018-03-29T02:18:00.368Z,98405.75
2018-03-29T02:20:27.939Z,98413.59
2018-03-29T02:22:55.497Z,98411.06
2018-03-29T02:25:23.066Z,98409.68
2018-03-29T02:27:50.597Z,98409.60
2018-03-29T02:30:18.207Z,98415.63
2018-03-29T02:32:45.772Z,98411.02
2018-03-29T02:35:13.333Z,98418.86
2018-03-29T02:37:40.893Z,98410.88
2018-03-29T02:40:08.437Z,98415.70
2018-03-29T02:42:36.005Z,98416.03
2018-03-29T02:45:03.568Z,98412.04
2018-03-29T02:47:31.137Z,98420.37
2018-03-29T02:49:59.035Z,98410.87
2018-03-29T02:52:28.101Z,98422.52
2018-03-29T02:54:55.903Z,98407.55
2018-03-29T02:57:23.457Z,98413.94
2018-03-29T02:59:50.991Z,98418.84
2018-03-29T03:02:19.457Z,98411.75
2018-03-29T03:04:47.028Z,98408.99
2018-03-29T03:07:14.613Z,98406.50
2018-03-29T03:09:42.134Z,98393.14
2018-03-29T03:12:09.665Z,98403.05
2018-03-29T03:14:37.244Z,98397.59
2018-03-29T03:17:04.765Z,98403.78
2018-03-29T03:19:32.614Z,98406.74
2018-03-29T03:22:00.152Z,98403.81
2018-03-29T03:24:27.710Z,98412.05
2018-03-29T03:26:55.223Z,98413.61
2018-03-29T03:29:22.762Z,98414.39
2018-03-29T03:31:50.306Z,98411.78
2018-03-29T03:34:17.871Z,98419.88
2018-03-29T03:36:45.435Z,98416.68
2018-03-29T03:39:13.005Z,98424.63
2018-03-29T03:41:40.569Z,98425.91
2018-03-29T03:44:08.145Z,98411.42
2018-03-29T03:46:35.689Z,98419.84
2018-03-29T03:49:03.223Z,98420.55
2018-03-29T03:51:30.772Z,98422.42
2018-03-29T03:53:58.295Z,98426.42
2018-03-29T03:56:25.856Z,98434.93
2018-03-29T03:58:53.416Z,98433.13
2018-03-29T04:01:20.959Z,98437.79
2018-03-29T04:03:48.482Z,98446.23
2018-03-29T04:06:16.035Z,98439.41
2018-03-29T04:08:43.566Z,98438.20
2018-03-29T04:11:11.135Z,98450.97
2018-03-29T04:13:38.670Z,98450.66
2018-03-29T04:16:06.249Z,98445.48
2018-03-29T04:18:33.780Z,98444.72
2018-03-29T04:21:01.347Z,98446.68
2018-03-29T04:23:28.884Z,98451.53
2018-03-29T04:25:56.471Z,98449.99
2018-03-29T04:28:24.005Z,98445.20
2018-03-29T04:30:51.532Z,98445.38
2018-03-29T04:33:19.093Z,98442.39
2018-03-29T04:35:46.624Z,98444.16
2018-03-29T04:38:14.184Z,98452.52
2018-03-29T04:40:41.724Z,98451.79
2018-03-29T04:43:09.272Z,98455.81
2018-03-29T04:45:36.808Z,98450.80
2018-03-29T04:48:04.359Z,98453.91
2018-03-29T04:50:31.884Z,98460.09
2018-03-29T04:52:59.438Z,98466.44
2018-03-29T04:55:26.970Z,98464.26
2018-03-29T04:57:54.530Z,98472.50
2018-03-29T05:00:22.055Z,98474.97
2018-03-29T05:02:49.621Z,98486.81
2018-03-29T05:05:17.164Z,98471.52
2018-03-29T05:07:44.708Z,98471.06
2018-03-29T05:10:12.274Z,98477.96
2018-03-29T05:12:39.823Z,98473.16
2018-03-29T05:15:07.382Z,98475.13
2018-03-29T05:17:34.903Z,98481.13
2018-03-29T05:20:04.782Z,98481.09
2018-03-29T05:22:35.399Z,98487.09
2018-03-29T05:25:06.637Z,98491.33
2018-03-29T05:27:34.340Z,98490.94
2018-03-29T05:30:01.944Z,98485.28
2018-03-29T05:32:29.544Z,98477.55
2018-03-29T05:35:00.158Z,98484.08
2018-03-29T05:37:29.544Z,98480.64
2018-03-29T05:39:57.219Z,98481.61
2018-03-29T05:42:24.752Z,98480.47
2018-03-29T05:44:52.340Z,98471.63
2018-03-29T05:47:19.872Z,98470.53
2018-03-29T05:49:47.772Z,98461.67
2018-03-29T05:52:15.363Z,98456.64
2018-03-29T05:54:42.934Z,98470.37
2018-03-29T05:57:13.893Z,98485.20
2018-03-29T05:59:41.416Z,98486.10
2018-03-29T06:02:08.973Z,98474.55
2018-03-29T06:04:36.492Z,98472.64
2018-03-29T06:07:04.039Z,98468.38
2018-03-29T06:09:31.566Z,98479.56
2018-03-29T06:11:59.130Z,98494.76
2018-03-29T06:14:32.239Z,98476.01
2018-03-29T06:16:59.804Z,98489.53
2018-03-29T06:19:27.338Z,98501.45
2018-03-29T06:21:54.891Z,98505.30
2018-03-29T06:24:23.429Z,98504.17
2018-03-29T06:26:51.035Z,98504.55
2018-03-29T06:29:18.550Z,98507.20
2018-03-29T06:31:46.072Z,98505.74
2018-03-29T06:34:13.624Z,98504.11
2018-03-29T06:36:41.950Z,98509.67
2018-03-29T06:39:09.837Z,98499.39
2018-03-29T06:41:37.355Z,98508.61
2018-03-29T06:44:05.134Z,98502.18
2018-03-29T06:46:33.565Z,98505.48
2018-03-29T06:49:01.252Z,98510.11
2018-03-29T06:51:28.784Z,98516.25
2018-03-29T06:53:56.339Z,98514.31
2018-03-29T06:56:24.371Z,98507.45
2018-03-29T06:58:51.931Z,98516.81
2018-03-29T07:01:19.478Z,98514.71
2018-03-29T07:03:47.045Z,98506.52
2018-03-29T07:06:14.963Z,98499.16
2018-03-29T07:08:42.789Z,98501.75
2018-03-29T07:11:10.391Z,98504.81
2018-03-29T07:13:38.568Z,98505.28
2018-03-29T07:16:07.938Z,98504.55
2018-03-29T07:18:35.614Z,98502.60
2018-03-29T07:21:05.760Z,98505.01
2018-03-29T07:23:34.268Z,98502.08
2018-03-29T07:26:02.227Z,98512.86
2018-03-29T07:28:29.779Z,98517.64
2018-03-29T07:30:57.405Z,98519.09
2018-03-29T07:33:26.508Z,98522.03
2018-03-29T07:35:54.632Z,98523.05
2018-03-29T07:38:25.485Z,98521.83
2018-03-29T07:40:53.292Z,98516.03
2018-03-29T07:43:20.817Z,98515.14
2018-03-29T07:45:48.379Z,98519.63
2018-03-29T07:48:15.917Z,98513.78
2018-03-29T07:50:43.508Z,98509.88
2018-03-29T07:53:13.393Z,98505.25
2018-03-29T07:55:41.291Z,98505.98
2018-03-29T07:58:08.884Z,98510.72
2018-03-29T08:00:36.497Z,98510.33
2018-03-29T08:03:04.066Z,98502.43
2018-03-29T08:05:31.641Z,98509.03
2018-03-29T08:07:59.207Z,98507.06
2018-03-29T08:10:26.714Z,98502.40
2018-03-29T08:12:54.913Z,98512.88
2018-03-29T08:15:22.449Z,98512.23
2018-03-29T08:17:50.244Z,98512.95
2018-03-29T08:20:17.795Z,98503.84
2018-03-29T08:22:54.247Z,98500.69
2018-03-29T08:25:27.074Z,98497.75
2018-03-29T08:28:00.045Z,98506.35
2018-03-29T08:30:31.755Z,98498.05
2018-03-29T08:33:06.962Z,98494.70
2018-03-29T08:35:39.524Z,98512.02
2018-03-29T08:38:15.263Z,98500.03
2018-03-29T08:40:47.382Z,98500.23
2018-03-29T08:43:20.561Z,98502.83
2018-03-29T08:45:52.367Z,98503.89
2018-03-29T08:48:26.287Z,98500.69
2018-03-29T08:53:34.038Z,98506.59
2018-03-29T08:56:06.385Z,98500.60
2018-03-29T08:58:40.306Z,98499.03
2018-03-29T09:01:12.288Z,98503.47
2018-03-29T09:03:47.489Z,98506.02
2018-03-29T09:06:19.292Z,98501.02
2018-03-29T09:08:55.572Z,98506.23
2018-03-29T09:11:28.052Z,98501.96
2018-03-29T09:14:01.396Z,98494.02
2018-03-29T09:16:35.601Z,98505.34
2018-03-29T09:21:46.593Z,98508.23
2018-03-29T09:24:18.813Z,98492.95
2018-03-29T09:26:50.724Z,98501.26
2018-03-29T09:29:22.512Z,98492.09
2018-03-29T09:31:55.222Z,98511.41
2018-03-29T09:34:29.396Z,98494.98
2018-03-29T09:37:03.768Z,98492.92
2018-03-29T09:39:39.091Z,98500.91
2018-03-29T09:42:14.511Z,98498.39
2018-03-29T09:44:44.189Z,98495.34
2018-03-29T09:47:13.952Z,98500.89
2018-03-29T09:49:44.133Z,98497.28
2018-03-29T09:52:13.647Z,98504.48
2018-03-29T09:54:43.430Z,98503.98
2018-03-29T09:57:12.653Z,98499.44
2018-03-29T09:59:40.476Z,98498.43
2018-03-29T10:02:18.692Z,98501.59
2018-03-29T10:04:53.544Z,98489.44
2018-03-29T10:07:40.286Z,98495.81
2018-03-29T10:10:08.805Z,98506.97
2018-03-29T10:12:38.351Z,98493.17
2018-03-29T10:15:06.241Z,98495.31
2018-03-29T10:17:35.736Z,98509.38
2018-03-29T10:20:06.880Z,98488.56
2018-03-29T10:22:39.102Z,98493.04
2018-03-29T10:25:10.768Z,98495.05
2018-03-29T10:27:44.533Z,98490.09
2018-03-29T10:32:58.507Z,98490.00
2018-03-29T10:35:31.596Z,98493.81
2018-03-29T10:38:03.431Z,98494.55
2018-03-29T10:40:41.771Z,98497.46
2018-03-29T10:43:18.163Z,98491.37
2018-03-29T10:45:47.348Z,98485.38
2018-03-29T10:48:17.161Z,98487.81
2018-03-29T10:50:45.410Z,98492.14
2018-03-29T10:53:14.741Z,98481.46
2018-03-29T10:55:42.744Z,98482.81
2018-03-29T10:58:12.302Z,98474.41
2018-03-29T11:00:42.404Z,98479.01
2018-03-29T11:03:10.445Z,98487.48
2018-03-29T11:05:38.764Z,98487.75
2018-03-29T11:08:06.915Z,98497.39
2018-03-29T11:10:34.692Z,98483.84
2018-03-29T11:13:03.234Z,98491.47
2018-03-29T11:15:31.627Z,98490.66
2018-03-29T11:18:05.696Z,98475.34
2018-03-29T11:20:39.497Z,98482.48
2018-03-29T11:23:11.260Z,98465.52
2018-03-29T11:25:41.368Z,98465.67
2018-03-29T11:28:09.041Z,98467.44
2018-03-29T11:30:36.696Z,98455.30
2018-03-29T11:33:05.583Z,98464.61
2018-03-29T11:35:34.327Z,98462.92
2018-03-29T11:38:02.744Z,98465.30
2018-03-29T11:40:30.483Z,98460.23
2018-03-29T11:42:58.591Z,98460.61
2018-03-29T11:45:27.286Z,98458.50
2018-03-29T11:47:56.084Z,98454.64
2018-03-29T11:50:24.721Z,98457.50
2018-03-29T11:52:56.641Z,98468.71
2018-03-29T11:55:30.497Z,98460.13
2018-03-29T11:58:04.819Z,98460.77
2018-03-29T12:00:45.400Z,98462.44
2018-03-29T12:03:21.021Z,98461.52
2018-03-29T12:05:56.213Z,98467.85
2018-03-29T12:08:24.656Z,98466.70
2018-03-29T12:10:54.831Z,98457.64
2018-03-29T12:13:23.209Z,98464.79
2018-03-29T12:15:52.065Z,98456.64
2018-03-29T12:18:20.721Z,98466.30
2018-03-29T12:20:50.221Z,98457.61
2018-03-29T12:23:19.014Z,98460.71
2018-03-29T12:25:46.791Z,98455.11
2018-03-29T12:28:18.575Z,98447.80
2018-03-29T12:30:48.771Z,98441.23
2018-03-29T12:33:17.534Z,98439.41
2018-03-29T12:35:46.244Z,98440.41
2018-03-29T12:38:15.388Z,98443.00
2018-03-29T12:40:45.127Z,98439.73
2018-03-29T12:43:14.829Z,98441.56
2018-03-29T12:45:45.565Z,98431.17
2018-03-29T12:48:14.487Z,98434.91
2018-03-29T12:50:42.406Z,98431.17
2018-03-29T12:53:15.586Z,98431.22
2018-03-29T12:55:44.722Z,98438.02
2018-03-29T12:58:14.697Z,98423.13
2018-03-29T13:00:45.193Z,98425.49
2018-03-29T13:03:13.488Z,98429.84
2018-03-29T13:05:43.454Z,98430.79
2018-03-29T13:08:12.640Z,98440.05
2018-03-29T13:10:41.532Z,98453.86
2018-03-29T13:13:10.759Z,98443.32
2018-03-29T13:15:39.491Z,98437.84
2018-03-29T13:18:09.246Z,98446.14
2018-03-29T13:20:39.673Z,98444.83
2018-03-29T13:23:09.143Z,98435.45
2018-03-29T13:25:37.684Z,98437.99
2018-03-29T13:28:06.629Z,98443.23
2018-03-29T13:30:36.255Z,98429.36
2018-03-29T13:33:07.327Z,98433.23
2018-03-29T13:35:36.051Z,98435.48
2018-03-29T13:38:04.343Z,98440.29
2018-03-29T13:40:32.345Z,98434.48
2018-03-29T13:43:02.686Z,98432.14
2018-03-29T13:45:31.664Z,98422.59
2018-03-29T13:48:01.449Z,98429.03
2018-03-29T13:50:31.330Z,98420.39
2018-03-29T13:52:59.910Z,98418.19
2018-03-29T13:55:29.078Z,98416.53
2018-03-29T13:57:59.408Z,98416.66
2018-03-29T14:00:28.731Z,98417.89
2018-03-29T14:02:57.967Z,98417.79
2018-03-29T14:05:27.021Z,98416.23
2018-03-29T14:07:56.156Z,98404.32
2018-03-29T14:10:25.349Z,98407.66
2018-03-29T14:12:54.611Z,98408.52
2018-03-29T14:15:22.855Z,98406.61
2018-03-29T14:17:52.738Z,98400.45
2018-03-29T14:20:21.486Z,98399.53
2018-03-29T14:22:50.674Z,98403.16
2018-03-29T14:25:20.101Z,98396.61
2018-03-29T14:27:48.061Z,98401.80
2018-03-29T14:30:16.596Z,98396.26
2018-03-29T14:32:44.291Z,98393.16
2018-03-29T14:35:13.606Z,98391.72
2018-03-29T14:37:41.418Z,98381.30
2018-03-29T14:40:12.366Z,98386.34
2018-03-29T14:42:40.251Z,98387.50
2018-03-29T14:45:07.856Z,98364.53
2018-03-29T14:47:35.376Z,98361.13
2018-03-29T14:50:02.928Z,98354.31
2018-03-29T14:52:31.087Z,98338.84
2018-03-29T14:55:01.900Z,98349.33
2018-03-29T14:57:31.212Z,98348.36
2018-03-29T14:59:59.455Z,98353.66
2018-03-29T15:02:28.499Z,98346.74
2018-03-29T15:04:56.953Z,98343.38
2018-03-29T15:07:25.802Z,98335.40
2018-03-29T15:09:56.554Z,98339.54
2018-03-29T15:12:26.502Z,98336.69
2018-03-29T15:14:56.813Z,98326.63
2018-03-29T15:17:25.154Z,98347.24
2018-03-29T15:19:53.359Z,98336.31
2018-03-29T15:22:22.185Z,98332.08
2018-03-29T15:24:51.688Z,98327.53
2018-03-29T15:27:20.085Z,98330.05
2018-03-29T15:29:49.296Z,98337.67
2018-03-29T15:32:18.510Z,98327.74
2018-03-29T15:34:52.687Z,98337.88
2018-03-29T15:37:22.998Z,98326.66
2018-03-29T15:39:53.473Z,98325.37
2018-03-29T15:42:22.243Z,98319.74
2018-03-29T15:44:52.131Z,98323.95
2018-03-29T15:47:22.617Z,98310.13
2018-03-29T15:49:52.235Z,98320.58
2018-03-29T15:52:22.877Z,98332.12
2018-03-29T15:54:51.733Z,98328.23
2018-03-29T15:57:22.381Z,98313.52
2018-03-29T15:59:50.971Z,98326.01
2018-03-29T16:02:21.181Z,98320.55
2018-03-29T16:04:49.927Z,98319.08
2018-03-29T16:07:18.776Z,98321.09
2018-03-29T16:09:48.102Z,98321.16
2018-03-29T16:12:17.507Z,98325.47
2018-03-29T16:14:45.147Z,98328.56
2018-03-29T16:17:15.898Z,98319.31
2018-03-29T16:19:44.115Z,98328.39
2018-03-29T16:22:12.987Z,98330.58
2018-03-29T16:24:40.516Z,98334.34
2018-03-29T16:27:11.324Z,98323.54
2018-03-29T16:29:43.186Z,98321.80
2018-03-29T16:32:13.552Z,98323.27
2018-03-29T16:34:44.019Z,98313.34
2018-03-29T16:37:14.658Z,98316.98
2018-03-29T16:39:43.258Z,98322.36
2018-03-29T16:42:17.430Z,98326.80
2018-03-29T16:44:47.376Z,98333.30
2018-03-29T16:47:19.986Z,98326.44
2018-03-29T16:49:51.350Z,98332.54
2018-03-29T16:52:19.143Z,98323.95
2018-03-29T16:54:48.228Z,98324.05
2018-03-29T16:57:18.425Z,98333.08
2018-03-29T16:59:46.360Z,98327.97
2018-03-29T17:02:14.522Z,98330.94
2018-03-29T17:04:42.388Z,98332.03
2018-03-29T17:07:13.651Z,98340.27
2018-03-29T17:09:42.184Z,98345.77
2018-03-29T17:12:10.904Z,98338.98
2018-03-29T17:14:42.308Z,98335.55
2018-03-29T17:17:12.860Z,98339.08
2018-03-29T17:19:41.848Z,98339.52
2018-03-29T17:22:13.574Z,98344.20
2018-03-29T17:24:42.118Z,98343.42
2018-03-29T17:27:11.491Z,98338.46
2018-03-29T17:29:39.898Z,98346.69
2018-03-29T17:32:09.776Z,98354.58
2018-03-29T17:34:39.007Z,98366.26
2018-03-29T17:37:09.478Z,98357.15
2018-03-29T17:39:37.511Z,98363.22
2018-03-29T17:42:05.867Z,98361.88
2018-03-29T17:44:37.885Z,98371.52
2018-03-29T17:47:09.230Z,98371.13
2018-03-29T17:49:36.960Z,98359.78
2018-03-29T17:52:07.149Z,98365.09
2018-03-29T17:54:34.876Z,98361.25
2018-03-29T17:57:03.128Z,98366.12
2018-03-29T17:59:33.255Z,98367.90
2018-03-29T18:02:00.805Z,98351.64
2018-03-29T18:04:29.541Z,98364.94
2018-03-29T18:06:58.129Z,98356.15
2018-03-29T18:09:29.142Z,98364.45
2018-03-29T18:11:57.656Z,98352.36
2018-03-29T18:14:27.774Z,98344.60
2018-03-29T18:16:55.401Z,98356.69
2018-03-29T18:19:22.963Z,98365.36
2018-03-29T18:21:55.075Z,98360.66
2018-03-29T18:24:22.882Z,98364.76
2018-03-29T18:26:51.925Z,98369.91
2018-03-29T18:29:20.743Z,98375.58
2018-03-29T18:31:48.343Z,98360.47
2018-03-29T18:34:15.884Z,98367.70
2018-03-29T18:36:43.411Z,98370.84
2018-03-29T18:39:10.967Z,98375.36
2018-03-29T18:41:38.476Z,98373.48
2018-03-29T18:44:06.023Z,98380.20
2018-03-29T18:46:33.539Z,98387.06
2018-03-29T18:49:01.103Z,98397.19
2018-03-29T18:51:28.651Z,98398.12
2018-03-29T18:53:56.208Z,98399.00
2018-03-29T18:56:23.734Z,98403.17
2018-03-29T18:58:51.345Z,98407.66
2018-03-29T19:01:18.868Z,98408.89
2018-03-29T19:03:46.438Z,98406.72
2018-03-29T19:06:13.990Z,98414.16
2018-03-29T19:08:41.594Z,98411.22
2018-03-29T19:11:09.125Z,98413.88
2018-03-29T19:13:36.643Z,98416.14
2018-03-29T19:16:04.200Z,98417.03
2018-03-29T19:18:31.733Z,98418.73
2018-03-29T19:20:59.307Z,98421.95
2018-03-29T19:23:26.863Z,98418.06
2018-03-29T19:25:54.454Z,98418.27
2018-03-29T19:28:21.993Z,98421.80
2018-03-29T19:30:49.566Z,98420.37
2018-03-29T19:33:17.080Z,98435.62
2018-03-29T19:35:44.641Z,98439.78
2018-03-29T19:38:12.161Z,98437.08
2018-03-29T19:40:39.719Z,98433.93
2018-03-29T19:43:07.280Z,98430.34
2018-03-29T19:45:34.839Z,98427.20
2018-03-29T19:48:02.387Z,98421.88
2018-03-29T19:50:29.964Z,98418.15
2018-03-29T19:52:57.478Z,98420.25
2018-03-29T19:55:25.027Z,98422.70
2018-03-29T19:57:52.956Z,98419.84
2018-03-29T20:00:20.991Z,98418.14
2018-03-29T20:02:48.651Z,98417.54
2018-03-29T20:05:16.558Z,98420.85
2018-03-29T20:07:44.135Z,98412.06
2018-03-29T20:10:11.701Z,98419.77
2018-03-29T20:12:39.504Z,98413.26
2018-03-29T20:15:07.376Z,98410.42
2018-03-29T20:17:35.197Z,98406.56
2018-03-29T20:20:02.784Z,98406.00
2018-03-29T20:22:30.857Z,98414.66
2018-03-29T20:24:58.465Z,98409.63
2018-03-29T20:27:26.098Z,98418.11
2018-03-29T20:29:53.720Z,98412.70
2018-03-29T20:32:31.031Z,98405.06
2018-03-29T20:34:59.166Z,98412.05
2018-03-29T20:37:26.702Z,98412.25
2018-03-29T20:40:01.745Z,98416.47
2018-03-29T20:42:29.280Z,98419.58
2018-03-29T20:44:56.815Z,98411.11
2018-03-29T20:47:24.396Z,98424.03
2018-03-29T20:49:51.926Z,98426.55
2018-03-29T20:52:19.514Z,98436.41
2018-03-29T20:54:47.060Z,98433.05
2018-03-29T20:57:14.616Z,98433.58
2018-03-29T20:59:42.167Z,98432.80
2018-03-29T21:02:09.744Z,98434.91
2018-03-29T21:04:37.260Z,98425.83
2018-03-29T21:07:04.900Z,98397.25
2018-03-29T21:09:32.465Z,98426.33
2018-03-29T21:12:00.073Z,98432.81
2018-03-29T21:14:27.595Z,98431.77
2018-03-29T21:16:55.155Z,98428.23
2018-03-29T21:19:22.673Z,98431.20
2018-03-29T21:21:50.297Z,98429.42
2018-03-29T21:24:17.824Z,98422.08
2018-03-29T21:26:45.382Z,98426.88
2018-03-29T21:29:16.832Z,98425.00
2018-03-29T21:31:47.665Z,98415.66
2018-03-29T21:34:18.657Z,98418.91
2018-03-29T21:36:47.233Z,98414.50
2018-03-29T21:39:15.554Z,98418.86
2018-03-29T21:41:44.077Z,98409.94
2018-03-29T21:44:12.218Z,98410.85
2018-03-29T21:46:43.692Z,98407.00
2018-03-29T21:49:11.488Z,98404.48
2018-03-29T21:51:39.130Z,98402.69
2018-03-29T21:54:06.809Z,98407.50
2018-03-29T21:56:34.394Z,98409.30
2018-03-29T21:59:01.930Z,98398.03
2018-03-29T22:01:29.597Z,98411.27
2018-03-29T22:03:57.164Z,98402.52
2018-03-29T22:06:25.451Z,98401.44
2018-03-29T22:08:54.162Z,98393.91
2018-03-29T22:11:21.790Z,98397.73
2018-03-29T22:13:50.252Z,98403.96
2018-03-29T22:16:18.201Z,98395.98
2018-03-29T22:18:49.435Z,98400.94
2018-03-29T22:21:18.438Z,98392.08
2018-03-29T22:23:48.342Z,98399.39
2018-03-29T22:26:17.330Z,98402.33
2018-03-29T22:28:47.101Z,98394.48
2018-03-29T22:31:14.807Z,98384.33
2018-03-29T22:33:43.596Z,98382.72
2018-03-29T22:36:11.302Z,98384.74
2018-03-29T22:38:39.799Z,98382.98
2018-03-29T22:41:09.626Z,98378.52
2018-03-29T22:43:38.812Z,98378.27
2018-03-29T22:46:08.468Z,98382.17
2018-03-29T22:48:36.351Z,98391.69
2018-03-29T22:51:03.905Z,98375.22
2018-03-29T22:53:31.620Z,98370.52
2018-03-29T22:55:59.316Z,98375.80
2018-03-29T22:58:27.171Z,98378.57
2018-03-29T23:00:54.803Z,98375.06
2018-03-29T23:03:22.372Z,98383.59
2018-03-29T23:05:50.384Z,98376.15
2018-03-29T23:08:18.112Z,98376.34
2018-03-29T23:10:45.896Z,98368.77
2018-03-29T23:13:14.208Z,98366.90
2018-03-29T23:15:42.615Z,98375.21
2018-03-29T23:18:11.011Z,98379.78
2018-03-29T23:20:39.650Z,98372.80
2018-03-29T23:23:08.400Z,98367.88
2018-03-29T23:25:36.452Z,98363.39
2018-03-29T23:28:03.984Z,98371.47
2018-03-29T23:30:31.538Z,98357.63
2018-03-29T23:32:59.084Z,98356.83
2018-03-29T23:35:27.221Z,98357.99
2018-03-29T23:37:55.217Z,98360.55
2018-03-29T23:40:23.160Z,98359.09
2018-03-29T23:42:51.197Z,98352.77
2018-03-29T23:45:19.306Z,98361.91
2018-03-29T23:47:47.065Z,98357.52
2018-03-29T23:50:14.917Z,98358.73
2018-03-29T23:52:42.495Z,98359.25
2018-03-29T23:55:10.276Z,98342.83
2018-03-29T23:57:37.861Z,98354.41
